Anniston Metropolitan Airport
KANB : now visible

Airfield :











YOU CAN JOIN US ON...

 
LOGIN :

Register | Disclaimer

   EN    FR    IT 

 









Legend :    VFR   Marginal VFR   IFR   Intensive IFR   Very Intensive IFR
Visi :
Ceiling :
>= 8 km
>= 3000ft
5 to 8 km
1000 to 3000 ft
1500m to 5 km
500 to 1000 ft
800 to 1500m
200 to 500 ft
< 800m
< 200 ft
Symbols :   Thunderstorms  Fog  Heavy snow  Heavy precipitations  Wind > 20 kt






- Airport Elevation : 612 ft
- IATA code : ANB


KANB - Anniston Metropolitan

CURRENT METAR :
  • 250853Z AUTO 07004KT 10SM CLR 20/17 A2999 RMK AO2 SLP146 T02000172 58010

EXPIRED METARs :
  • 250753Z AUTO 07004KT 10SM CLR 20/18 A3001 RMK AO2 SLP152 T02000178
  • 250653Z AUTO 08006KT 10SM CLR 21/17 A3001 RMK AO2 SLP155 T02060172

TAF KANB
Valid from the 25 at 06:00 until the 26 at 06:00 UTC


250520Z 2506/2606 07003KT P6SM FEW250
FM251600 11008KT P6SM FEW060
FM260000 08003KT P6SM SCT060
KZTL FIR / North America



MET'MAP, your aeronautical weather chart ! - Copyright ORBIFLY December 2007 - Disclaimer

ORBIFLY MET'MAP TEAM :

Programming & Development : Alexandra Zaïnal
Concept & original design : Baudouin d'Aumeries
Assistance for programming : Marc-Olivier Méhu
Technical & hardware support : Manuel Goepfert

Contact : metmap@orbifly.com




SOURCES & CREDITS :

   NOAA       Earth
Advisory